NCAR-RAP Real-Time Weather Data

Output produced by METARs form (24 November 2017  22:15 UTC)
found at http://weather.rap.ucar.edu/surface/
 
KBWI 242154Z 15007KT 10SM FEW250 09/00 A2996 RMK AO2 SLP145 T00890000
KBWI 242054Z 13007KT 10SM FEW250 12/M04 A2997 RMK AO2 SLP147 T01171039 56014
KBWI 241954Z VRB05KT 10SM FEW250 12/M05 A2997 RMK AO2 SLP148 T01221050
KBWI 241854Z 22005KT 10SM FEW250 12/M03 A2998 RMK AO2 SLP154 T01171033
KBWI 241754Z 15005KT 10SM CLR 11/M03 A3001 RMK AO2 SLP161 T01111028 10111 21033 58025
KBWI 241654Z 21005KT 10SM CLR 10/M03 A3004 RMK AO2 SLP173 T01001028
KBWI 241554Z 00000KT 10SM CLR 09/M02 A3007 RMK AO2 SLP182 T00891022
KBWI 241454Z 00000KT 10SM CLR 06/M02 A3008 RMK AO2 SLP187 T00561017 50003
KBWI 241354Z 00000KT 10SM CLR 03/M02 A3008 RMK AO2 SLP189 T00281017
KBWI 241254Z 00000KT 10SM FEW008 M01/M03 A3009 RMK AO2 SLP190 FU FEW008 FU PLUME NE T10111033
KBWI 241154Z 00000KT 9SM CLR M03/M04 A3007 RMK AO2 SLP184 T10331044 11017 21039 51002
KBWI 241054Z 00000KT 10SM CLR M03/M04 A3007 RMK AO2 SLP184 T10281044
KBWI 240954Z 00000KT 10SM CLR M03/M04 A3007 RMK AO2 SLP184 T10281044
KBWI 240854Z 00000KT 10SM CLR M03/M04 A3006 RMK AO2 SLP182 T10281044 53001
KBWI 240754Z 00000KT 10SM CLR M02/M04 A3007 RMK AO2 SLP183 T10221044
KBWI 240654Z 00000KT 10SM CLR M02/M04 A3005 RMK AO2 SLP178 T10221039
KBWI 240554Z 00000KT 10SM CLR M02/M04 A3006 RMK AO2 SLP181 T10221039 10006 21028 58004
KBWI 240454Z 26003KT 10SM CLR M02/M04 A3007 RMK AO2 SLP185 T10221044 400671028
KBWI 240354Z 00000KT 10SM CLR M01/M04 A3007 RMK AO2 SLP185 T10111044
KBWI 240254Z 00000KT 10SM CLR M01/M04 A3007 RMK AO2 SLP185 T10111044 53008
KBWI 240154Z 00000KT 10SM CLR M01/M05 A3007 RMK AO2 SLP182 T10111050
KBWI 240054Z 00000KT 10SM CLR M01/M04 A3005 RMK AO2 SLP176 T10061044
KBWI 232354Z 00000KT 10SM FEW250 01/M05 A3005 RMK AO2 SLP178 T00061050 10067 20006 58003
KBWI 232254Z 00000KT 10SM FEW250 03/M04 A3007 RMK AO2 SLP183 T00281044
KBWI 232154Z 26004KT 10SM FEW180 FEW250 03/M05 A3006 RMK AO2 SLP181 T00331050
KBWI 232054Z VRB03KT 10SM FEW180 FEW250 06/M05 A3006 RMK AO2 SLP180 T00611050 56010
KBWI 231954Z 31005KT 10SM FEW250 07/M05 A3007 RMK AO2 SLP182 T00671050
KBWI 231854Z 32008KT 10SM FEW250 07/M05 A3008 RMK AO2 SLP186 T00671050
KBWI 231754Z 28004KT 10SM FEW250 06/M05 A3009 RMK AO2 SLP190 T00561050 10061 21022 58027
KBWI 231654Z 31008KT 10SM FEW250 06/M04 A3011 RMK AO2 SLP196 T00611044
KBWI 231554Z 00000KT 10SM FEW048 FEW100 FEW250 04/M05 A3015 RMK AO2 SLP211 T00391050
KBWI 231454Z 32006KT 10SM FEW038 FEW100 SCT250 03/M06 A3017 RMK AO2 SLP217 T00331056 58002
KBWI 231354Z 29004KT 10SM FEW038 FEW100 SCT250 01/M04 A3019 RMK AO2 SLP225 T00111039
KBWI 231254Z 26003KT 10SM FEW038 FEW250 M02/M06 A3019 RMK AO2 SLP223 T10171056
KBWI 231154Z 29003KT 10SM FEW038 FEW250 M02/M06 A3018 RMK AO2 SLP220 T10171056 10000 21028 53006
KBWI 231054Z 00000KT 10SM FEW250 M02/M05 A3017 RMK AO2 SLP218 T10221050
KBWI 230954Z 00000KT 10SM FEW250 M02/M05 A3016 RMK AO2 SLP213 T10171050
KBWI 230854Z 00000KT 10SM FEW250 M02/M06 A3016 RMK AO2 SLP213 T10171056 58000
KBWI 230754Z 27004KT 10SM CLR M02/M06 A3017 RMK AO2 SLP216 T10171056
KBWI 230654Z 26003KT 10SM CLR M01/M05 A3016 RMK AO2 SLP212 T10061050
KBWI 230554Z 00000KT 10SM FEW250 00/M04 A3016 RMK AO2 SLP213 T00001044 10056 21006 58005
KBWI 230454Z 24004KT 10SM FEW048 FEW250 00/M04 A3018 RMK AO2 SLP219 T00001044 401390000
KBWI 230354Z 33004KT 10SM FEW048 02/M05 A3018 RMK AO2 SLP219 T00221050
KBWI 230254Z 31006KT 10SM FEW048 03/M05 A3017 RMK AO2 SLP218 T00281050 53017
KBWI 230154Z 28007KT 10SM FEW050 02/M03 A3016 RMK AO2 SLP212 T00221033
KBWI 230054Z 30005KT 10SM FEW050 04/M03 A3014 RMK AO2 SLP206 T00391033
KBWI 222354Z 31007KT 10SM FEW050 05/M03 A3012 RMK AO2 SLP201 T00501033 10117 20050 52024
KBWI 222254Z 30011KT 10SM FEW049 FEW250 06/M03 A3010 RMK AO2 SLP192 T00611028
KBWI 222154Z 30013G18KT 10SM BKN050 BKN250 08/M03 A3008 RMK AO2 SLP185 T00781028
KBWI 222054Z 31015G21KT 10SM SCT050 SCT250 08/M02 A3005 RMK AO2 PK WND 32026/1956 SLP176 T00831022 53022
KBWI 221954Z 31015G24KT 10SM SCT050 SCT250 10/M02 A3002 RMK AO2 PK WND 30028/1909 SLP167 T01001022
KBWI 221854Z 33017G26KT 10SM SCT050 11/M01 A3001 RMK AO2 PK WND 33026/1854 SLP162 T01111011
KBWI 221754Z 29022G28KT 10SM SCT050 12/00 A2999 RMK AO2 PK WND 29032/1713 SLP153 T01170000 10139 20089 51012
KBWI 221654Z 30018G24KT 10SM SCT049 13/01 A2998 RMK AO2 PK WND 30032/1555 SLP151 T01280011
KBWI 221554Z 30019G28KT 10SM FEW060 FEW100 FEW180 13/01 A2996 RMK AO2 PK WND 29028/1549 SLP145 T01330011
KBWI 221454Z 30014G24KT 10SM FEW055 FEW100 FEW180 13/03 A2995 RMK AO2 SLP141 T01330028 50010
KBWI 221354Z 29009KT 10SM BKN100 BKN180 12/04 A2995 RMK AO2 SLP142 T01220044
KBWI 221254Z 27007KT 10SM SCT060 BKN100 BKN180 10/07 A2993 RMK AO2 SLP135 T01000072
KBWI 221154Z 26003KT 10SM FEW030 SCT075 SCT120 BKN180 09/09 A2992 RMK AO2 SLP133 60001 70001 T00890089 10117 20089 53005
KBWI 221054Z 21003KT 10SM FEW027 BKN055 OVC110 10/09 A2992 RMK AO2 RAE49 SLP131 P0001 T01000094